createdAt,value
2022-10-16T00:01:51.385Z,86.27
2022-10-16T00:05:53.001Z,86.71
2022-10-16T00:09:55.801Z,86.13
2022-10-16T00:13:59.869Z,84.70
2022-10-16T00:18:01.418Z,87.78
2022-10-16T00:22:03.143Z,87.97
2022-10-16T00:26:07.538Z,88.46
2022-10-16T00:30:09.939Z,85.83
2022-10-16T00:34:11.478Z,86.25
2022-10-16T00:38:12.938Z,87.13
2022-10-16T00:42:18.802Z,87.60
2022-10-16T00:46:22.870Z,87.37
2022-10-16T00:50:29.434Z,88.02
2022-10-16T00:54:32.863Z,87.46
2022-10-16T00:58:35.843Z,86.56
2022-10-16T01:02:37.614Z,87.21
2022-10-16T01:06:47.310Z,87.99
2022-10-16T01:10:55.050Z,86.99
2022-10-16T01:15:04.536Z,86.73
2022-10-16T01:19:12.954Z,87.68
2022-10-16T01:23:27.343Z,88.22
2022-10-16T01:27:34.411Z,87.64
2022-10-16T01:31:40.283Z,88.13
2022-10-16T01:35:45.716Z,87.29
2022-10-16T01:39:49.683Z,87.55
2022-10-16T01:44:00.415Z,88.60
2022-10-16T01:48:03.616Z,88.01
2022-10-16T01:52:09.739Z,88.06
2022-10-16T01:56:13.746Z,87.45
2022-10-16T02:00:20.155Z,88.78
2022-10-16T02:04:27.847Z,86.74
2022-10-16T02:08:31.611Z,86.06
2022-10-16T02:12:36.950Z,86.10
2022-10-16T02:16:42.286Z,83.42
2022-10-16T02:20:58.303Z,82.52
2022-10-16T02:25:03.659Z,84.58
2022-10-16T02:29:09.044Z,81.20
2022-10-16T02:33:14.651Z,81.93
2022-10-16T02:37:17.547Z,83.48
2022-10-16T02:41:19.623Z,81.70
2022-10-16T02:45:21.777Z,82.03
2022-10-16T02:49:24.702Z,81.63
2022-10-16T02:53:26.268Z,81.33
2022-10-16T02:57:28.328Z,83.85
2022-10-16T03:01:30.165Z,82.54
2022-10-16T03:05:32.959Z,81.19
2022-10-16T03:09:34.466Z,80.32
2022-10-16T03:13:35.948Z,78.99
2022-10-16T03:17:37.446Z,80.03
2022-10-16T03:21:40.479Z,80.12
2022-10-16T03:25:41.879Z,80.88
2022-10-16T03:29:43.475Z,78.82
2022-10-16T03:33:44.874Z,78.88
2022-10-16T03:37:47.659Z,78.49
2022-10-16T03:41:49.075Z,78.73
2022-10-16T03:45:51.021Z,78.38
2022-10-16T03:49:52.471Z,79.03
2022-10-16T03:53:55.236Z,79.27
2022-10-16T03:57:56.700Z,78.35
2022-10-16T04:01:58.154Z,78.43
2022-10-16T04:05:59.994Z,78.61
2022-10-16T04:10:03.696Z,77.57
2022-10-16T04:14:05.127Z,78.52
2022-10-16T04:18:06.997Z,78.52
2022-10-16T04:22:08.518Z,78.90
2022-10-16T04:26:11.336Z,78.96
2022-10-16T04:30:13.198Z,79.59
2022-10-16T04:34:14.779Z,78.98
2022-10-16T04:38:16.419Z,79.27
2022-10-16T04:42:19.483Z,79.19
2022-10-16T04:46:20.979Z,79.71
2022-10-16T04:50:22.590Z,79.29
2022-10-16T04:54:24.030Z,80.13
2022-10-16T04:58:27.006Z,80.37
2022-10-16T05:02:28.509Z,81.16
2022-10-16T05:06:30.134Z,80.66
2022-10-16T05:10:31.822Z,80.55
2022-10-16T05:14:34.804Z,79.67
2022-10-16T05:18:36.262Z,79.62
2022-10-16T05:22:40.666Z,79.49
2022-10-16T05:26:42.089Z,80.44
2022-10-16T05:30:44.846Z,79.92
2022-10-16T05:34:46.543Z,79.92
2022-10-16T05:38:51.526Z,80.44
2022-10-16T05:42:55.938Z,81.64
2022-10-16T05:46:58.682Z,82.78
2022-10-16T05:51:01.528Z,84.28
2022-10-16T05:55:03.585Z,84.28
2022-10-16T05:59:05.650Z,84.83
2022-10-16T06:03:08.813Z,84.56
2022-10-16T06:07:10.233Z,85.41
2022-10-16T06:11:13.369Z,85.90
2022-10-16T06:15:15.153Z,86.29
2022-10-16T06:19:18.094Z,86.56
2022-10-16T06:23:19.608Z,86.71
2022-10-16T06:27:21.156Z,87.21
2022-10-16T06:31:23.130Z,88.09
2022-10-16T06:35:26.125Z,88.57
2022-10-16T06:39:27.741Z,88.15
2022-10-16T06:43:30.387Z,87.62
2022-10-16T06:47:31.832Z,87.44
2022-10-16T06:51:36.736Z,87.58
2022-10-16T06:55:40.587Z,88.24
2022-10-16T06:59:46.383Z,86.03
2022-10-16T07:03:48.754Z,86.89
2022-10-16T07:07:51.598Z,86.06
2022-10-16T07:11:53.046Z,85.23
2022-10-16T07:15:54.487Z,81.90
2022-10-16T07:19:55.902Z,83.08
2022-10-16T07:24:00.289Z,82.18
2022-10-16T07:28:01.753Z,83.27
2022-10-16T07:32:03.528Z,83.62
2022-10-16T07:36:06.227Z,81.09
2022-10-16T07:40:10.307Z,79.01
2022-10-16T07:44:11.771Z,79.95
2022-10-16T07:48:13.367Z,81.72
2022-10-16T07:52:14.924Z,80.77
2022-10-16T07:56:19.203Z,80.70
2022-10-16T08:00:20.883Z,81.64
2022-10-16T08:04:22.388Z,82.61
2022-10-16T08:08:24.076Z,83.56
2022-10-16T08:12:26.927Z,83.36
2022-10-16T08:16:28.380Z,77.03
2022-10-16T08:20:32.040Z,75.70
2022-10-16T08:24:33.427Z,75.21
2022-10-16T08:28:36.847Z,73.67
2022-10-16T08:32:38.804Z,72.97
2022-10-16T08:36:40.176Z,71.86
2022-10-16T08:40:43.529Z,69.84
2022-10-16T08:45:20.296Z,69.30
2022-10-16T08:49:22.361Z,69.73
2022-10-16T08:53:29.089Z,68.91
2022-10-16T08:57:30.568Z,68.68
2022-10-16T09:01:40.796Z,68.21
2022-10-16T09:06:05.044Z,67.74
2022-10-16T09:10:19.499Z,66.81
2022-10-16T09:14:40.864Z,66.46
2022-10-16T09:18:49.997Z,63.96
2022-10-16T09:22:54.600Z,65.05
2022-10-16T09:26:56.043Z,63.78
2022-10-16T09:30:57.472Z,64.58
2022-10-16T09:35:00.240Z,64.01
2022-10-16T09:39:07.360Z,63.36
2022-10-16T09:43:21.348Z,65.02
2022-10-16T09:47:26.394Z,63.01
2022-10-16T09:51:31.930Z,62.61
2022-10-16T09:55:33.344Z,59.98
2022-10-16T09:59:34.940Z,56.59
2022-10-16T10:03:39.184Z,54.15
2022-10-16T10:07:44.779Z,53.75
2022-10-16T10:11:50.134Z,51.87
2022-10-16T10:15:52.072Z,47.51
2022-10-16T10:19:55.131Z,46.76
2022-10-16T10:23:58.179Z,46.25
2022-10-16T10:28:20.805Z,46.07
2022-10-16T10:32:32.491Z,47.01
2022-10-16T10:36:37.520Z,48.30
2022-10-16T10:40:50.036Z,49.99
2022-10-16T10:45:01.372Z,45.89
2022-10-16T10:49:18.484Z,45.57
2022-10-16T10:53:29.747Z,42.02
2022-10-16T10:57:38.549Z,46.70
2022-10-16T11:01:47.233Z,44.84
2022-10-16T11:05:53.392Z,43.85
2022-10-16T11:10:00.408Z,42.78
2022-10-16T11:14:07.459Z,43.57
2022-10-16T11:18:19.220Z,42.06
2022-10-16T11:22:28.051Z,39.67
2022-10-16T11:26:35.634Z,40.45
2022-10-16T11:30:45.818Z,41.61
2022-10-16T11:34:52.829Z,39.96
2022-10-16T11:39:02.225Z,39.17
2022-10-16T11:43:14.043Z,38.05
2022-10-16T11:52:03.001Z,41.16
2022-10-16T11:56:05.253Z,40.54
2022-10-16T12:00:15.037Z,39.49
2022-10-16T12:04:25.749Z,39.49
2022-10-16T12:08:28.470Z,41.80
2022-10-16T12:12:40.281Z,44.91
2022-10-16T12:16:52.427Z,43.55
2022-10-16T12:20:59.223Z,45.77
2022-10-16T12:25:00.763Z,43.67
2022-10-16T12:29:15.109Z,45.31
2022-10-16T12:33:22.393Z,43.97
2022-10-16T12:37:27.460Z,43.64
2022-10-16T12:41:31.220Z,44.04
2022-10-16T12:45:34.842Z,41.73
2022-10-16T12:49:38.581Z,44.82
2022-10-16T12:53:41.413Z,44.31
2022-10-16T12:58:01.295Z,44.71
2022-10-16T13:02:24.343Z,47.65
2022-10-16T13:06:34.448Z,46.56
2022-10-16T13:10:42.199Z,47.43
2022-10-16T13:15:12.606Z,51.04
2022-10-16T13:19:22.807Z,52.56
2022-10-16T13:23:31.743Z,48.54
2022-10-16T13:27:45.910Z,45.30
2022-10-16T13:31:47.905Z,44.40
2022-10-16T13:35:51.223Z,44.54
2022-10-16T13:40:08.552Z,44.67
2022-10-16T13:44:18.071Z,47.92
2022-10-16T13:48:19.726Z,45.13
2022-10-16T13:52:22.131Z,44.81
2022-10-16T13:56:27.279Z,47.65
2022-10-16T14:00:30.625Z,44.95
2022-10-16T14:04:33.854Z,45.67
2022-10-16T14:08:35.637Z,45.91
2022-10-16T14:12:37.347Z,46.50
2022-10-16T14:16:43.212Z,47.06
2022-10-16T14:20:44.741Z,48.30
2022-10-16T14:24:46.440Z,47.55
2022-10-16T14:28:49.658Z,47.37
2022-10-16T14:32:57.584Z,47.53
2022-10-16T14:37:01.215Z,46.81
2022-10-16T14:41:04.963Z,47.20
2022-10-16T14:45:11.179Z,47.41
2022-10-16T14:49:18.725Z,50.63
2022-10-16T14:53:20.371Z,55.05
2022-10-16T14:57:25.237Z,58.23
2022-10-16T15:01:27.098Z,57.21
2022-10-16T15:05:29.878Z,59.22
2022-10-16T15:09:31.598Z,60.41
2022-10-16T15:13:33.071Z,58.17
2022-10-16T15:17:34.652Z,60.01
2022-10-16T15:21:37.512Z,60.97
2022-10-16T15:25:41.991Z,64.16
2022-10-16T15:29:43.654Z,64.30
2022-10-16T15:33:45.790Z,64.54
2022-10-16T15:37:48.960Z,66.38
2022-10-16T15:41:50.490Z,66.06
2022-10-16T15:46:01.473Z,66.59
2022-10-16T15:50:03.365Z,67.58
2022-10-16T15:54:06.415Z,65.96
2022-10-16T15:58:08.047Z,62.49
2022-10-16T16:02:10.269Z,58.64
2022-10-16T16:06:13.829Z,63.94
2022-10-16T16:10:16.837Z,62.53
2022-10-16T16:14:18.349Z,59.37
2022-10-16T16:18:19.846Z,57.71
2022-10-16T16:22:21.353Z,57.52
2022-10-16T16:26:26.920Z,58.79
2022-10-16T16:30:28.611Z,58.91
2022-10-16T16:34:30.594Z,59.05
2022-10-16T16:38:33.153Z,59.48
2022-10-16T16:42:36.030Z,60.09
2022-10-16T16:46:37.887Z,59.31
2022-10-16T16:50:39.519Z,59.93
2022-10-16T16:54:43.094Z,60.03
2022-10-16T16:58:47.940Z,60.31
2022-10-16T17:02:49.772Z,59.30
2022-10-16T17:06:51.327Z,60.27
2022-10-16T17:10:52.793Z,60.41
2022-10-16T17:14:55.742Z,61.89
2022-10-16T17:19:00.748Z,62.01
2022-10-16T17:23:02.315Z,62.16
2022-10-16T17:27:03.803Z,61.56
2022-10-16T17:35:12.474Z,62.08
2022-10-16T17:39:15.702Z,61.63
2022-10-16T17:43:17.396Z,61.72
2022-10-16T17:47:20.328Z,62.12
2022-10-16T17:51:24.779Z,61.27
2022-10-16T17:55:27.391Z,62.47
2022-10-16T17:59:29.023Z,62.29
2022-10-16T18:03:31.900Z,62.48
2022-10-16T18:07:33.516Z,62.80
2022-10-16T18:11:35.452Z,63.44
2022-10-16T18:15:37.019Z,63.66
2022-10-16T18:19:39.790Z,63.80
2022-10-16T18:23:49.061Z,63.93
2022-10-16T18:27:55.685Z,64.50
2022-10-16T18:31:57.282Z,65.34
2022-10-16T18:36:02.505Z,65.93
2022-10-16T18:40:04.604Z,66.03
2022-10-16T18:44:07.160Z,66.08
2022-10-16T18:48:08.760Z,65.70
2022-10-16T18:52:11.717Z,66.10
2022-10-16T18:56:14.554Z,66.40
2022-10-16T19:00:16.258Z,66.65
2022-10-16T19:04:18.097Z,66.83
2022-10-16T19:08:21.006Z,67.48
2022-10-16T19:12:22.494Z,67.32
2022-10-16T19:16:25.734Z,68.81
2022-10-16T19:20:27.418Z,68.70
2022-10-16T19:24:30.371Z,69.41
2022-10-16T19:28:32.150Z,69.58
2022-10-16T19:32:33.829Z,69.52
2022-10-16T19:36:37.386Z,70.00
2022-10-16T19:40:40.315Z,70.96
2022-10-16T19:44:41.914Z,70.65
2022-10-16T19:48:44.301Z,70.83
2022-10-16T19:52:45.931Z,70.89
2022-10-16T19:56:48.851Z,71.09
2022-10-16T20:00:50.669Z,70.99
2022-10-16T20:04:52.374Z,71.78
2022-10-16T20:08:54.977Z,71.88
2022-10-16T20:12:57.949Z,74.57
2022-10-16T20:16:59.546Z,75.82
2022-10-16T20:21:01.033Z,76.31
2022-10-16T20:25:05.897Z,75.47
2022-10-16T20:29:11.528Z,74.56
2022-10-16T20:33:13.713Z,73.50
2022-10-16T20:37:15.233Z,73.82
2022-10-16T20:41:17.821Z,73.89
2022-10-16T20:45:20.802Z,75.20
2022-10-16T20:49:39.415Z,76.95
2022-10-16T20:53:41.790Z,77.06
2022-10-16T20:57:43.425Z,77.79
2022-10-16T21:01:46.483Z,78.48
2022-10-16T21:05:47.985Z,77.91
2022-10-16T21:09:49.861Z,78.17
2022-10-16T21:13:52.409Z,78.19
2022-10-16T21:17:55.189Z,79.13
2022-10-16T21:21:56.845Z,79.56
2022-10-16T21:25:58.973Z,79.27
2022-10-16T21:30:00.551Z,80.04
2022-10-16T21:34:03.795Z,80.49
2022-10-16T21:38:05.429Z,80.74
2022-10-16T21:42:06.905Z,79.92
2022-10-16T21:46:08.548Z,81.21
2022-10-16T21:50:11.471Z,81.91
2022-10-16T21:54:14.806Z,81.97
2022-10-16T21:58:16.460Z,81.65
2022-10-16T22:02:18.059Z,81.49
2022-10-16T22:10:24.380Z,81.92
2022-10-16T22:14:25.838Z,82.00
2022-10-16T22:18:28.159Z,82.04
2022-10-16T22:22:31.136Z,83.28
2022-10-16T22:26:33.401Z,83.22
2022-10-16T22:30:35.484Z,83.25
2022-10-16T22:34:37.239Z,83.23
2022-10-16T22:38:40.513Z,83.69
2022-10-16T22:42:42.164Z,84.61
2022-10-16T22:46:43.800Z,83.84
2022-10-16T22:50:45.384Z,84.27
2022-10-16T22:54:48.271Z,84.75
2022-10-16T22:58:50.167Z,85.24
2022-10-16T23:02:52.071Z,84.88
2022-10-16T23:06:53.659Z,84.10
2022-10-16T23:10:56.584Z,85.15
2022-10-16T23:14:58.195Z,84.43
2022-10-16T23:18:59.683Z,84.64
2022-10-16T23:23:01.493Z,84.19
2022-10-16T23:27:04.501Z,84.74
2022-10-16T23:31:06.928Z,84.69
2022-10-16T23:35:09.128Z,85.78
2022-10-16T23:39:10.584Z,85.03
2022-10-16T23:43:13.702Z,84.53
2022-10-16T23:47:15.364Z,85.18
2022-10-16T23:51:17.008Z,84.58
2022-10-16T23:55:18.603Z,85.01
2022-10-16T23:59:21.672Z,85.61
